Time;durP1;ratioP1;P1;durP2;ratioP2;P2;SDS_P1;SDS_P2;PMS_P1;PMS_P2;Temp;Humidity;BMP_temperature;BMP_pressure;BME280_temperature;BME280_humidity;BME280_pressure;Samples;Min_cycle;Max_cycle;Signal;HPM_P1;HPM_P2
2022/04/20 00:00:01;;;;;;;12.85;7.33;;;;;;;7.47;49.79;100759.14;1714037;81;25777;-61
2022/04/20 00:02:27;;;;;;;9.40;6.20;;;;;;;7.47;49.85;100748.93;1729792;82;98563;-64
2022/04/20 00:04:55;;;;;;;17.42;6.55;;;;;;;7.47;49.84;100754.27;1737852;81;25962;-63
2022/04/20 00:07:21;;;;;;;12.70;6.08;;;;;;;7.45;49.98;100746.31;1735005;81;98473;-64
2022/04/20 00:09:48;;;;;;;11.43;6.60;;;;;;;7.45;50.02;100749.44;1754918;81;25865;-63
2022/04/20 00:12:17;;;;;;;14.83;8.18;;;;;;;7.43;50.06;100752.61;1746637;81;98706;-64
2022/04/20 00:14:43;;;;;;;21.87;7.40;;;;;;;7.40;50.11;100746.91;1752363;81;26015;-63
2022/04/20 00:17:09;;;;;;;13.28;7.25;;;;;;;7.40;50.22;100748.69;1753536;80;25754;-63
2022/04/20 00:19:36;;;;;;;15.53;8.05;;;;;;;7.40;50.32;100751.36;1752646;81;98513;-64
2022/04/20 00:22:05;;;;;;;19.30;9.43;;;;;;;7.38;50.56;100759.86;1749315;80;25798;-64
2022/04/20 00:24:32;;;;;;;15.60;9.68;;;;;;;7.34;50.56;100760.41;1753720;81;98617;-63
2022/04/20 00:27:01;;;;;;;16.95;9.05;;;;;;;7.35;50.54;100755.95;1747904;81;26039;-62
2022/04/20 00:29:28;;;;;;;18.75;9.18;;;;;;;7.33;50.62;100755.12;1750591;80;25655;-64
2022/04/20 00:31:55;;;;;;;18.73;8.95;;;;;;;7.29;51.05;100748.13;1753592;81;98561;-62
2022/04/20 00:34:23;;;;;;;18.27;10.43;;;;;;;7.20;50.98;100749.25;1754069;81;25841;-62
2022/04/20 00:36:55;;;;;;;20.63;10.13;;;;;;;7.18;51.10;100740.88;1751827;80;98866;-62
2022/04/20 00:39:23;;;;;;;18.48;9.43;;;;;;;7.19;51.17;100736.84;1749820;80;25691;-62
2022/04/20 00:41:52;;;;;;;17.23;9.43;;;;;;;7.17;51.27;100736.02;1729602;82;25880;-62
2022/04/20 00:44:21;;;;;;;15.78;8.60;;;;;;;7.14;51.34;100732.09;1732376;81;98592;-62
2022/04/20 00:46:48;;;;;;;15.00;8.28;;;;;;;7.14;51.59;100734.30;1749036;81;26320;-62
2022/04/20 00:49:15;;;;;;;12.43;7.40;;;;;;;7.13;51.68;100741.02;1745420;81;98612;-63
2022/04/20 00:51:53;;;;;;;14.05;8.70;;;;;;;7.12;51.83;100734.81;1754744;81;26135;-63
2022/04/20 00:54:20;;;;;;;18.25;9.28;;;;;;;7.09;51.94;100728.69;1753397;81;98788;-63
2022/04/20 00:56:46;;;;;;;16.37;8.43;;;;;;;7.07;52.11;100723.86;1749505;80;27543;-63
2022/04/20 00:59:20;;;;;;;16.97;9.83;;;;;;;7.03;52.19;100719.53;1730525;81;25742;-62
2022/04/20 01:01:47;;;;;;;19.40;9.18;;;;;;;7.04;52.29;100726.15;1753648;80;98668;-63
2022/04/20 01:04:14;;;;;;;14.75;9.00;;;;;;;7.02;52.45;100725.31;1753854;80;28142;-63
2022/04/20 01:06:40;;;;;;;19.62;10.53;;;;;;;7.00;52.82;100728.94;1752817;80;98851;-63
2022/04/20 01:09:08;;;;;;;19.92;9.75;;;;;;;6.99;52.91;100729.86;1749580;81;27487;-64
2022/04/20 01:11:35;;;;;;;18.37;9.13;;;;;;;6.97;53.03;100723.69;1738189;81;34631;-61
2022/04/20 01:14:02;;;;;;;24.32;10.25;;;;;;;6.95;53.33;100718.41;1733386;81;98467;-63
2022/04/20 01:16:30;;;;;;;20.35;11.10;;;;;;;6.94;53.42;100722.44;1737536;81;28171;-63
2022/04/20 01:18:58;;;;;;;16.70;10.28;;;;;;;6.93;53.59;100724.23;1745612;80;98908;-63
2022/04/20 01:21:25;;;;;;;23.18;11.25;;;;;;;6.91;53.81;100731.39;1748681;80;27461;-63
2022/04/20 01:23:51;;;;;;;20.72;11.18;;;;;;;6.86;53.88;100732.44;1737238;81;26260;-63
2022/04/20 01:26:19;;;;;;;19.12;9.95;;;;;;;6.88;54.27;100741.27;1734264;81;98724;-63
2022/04/20 01:28:47;;;;;;;17.98;9.53;;;;;;;6.83;54.32;100742.26;1776980;80;26051;-64
2022/04/20 01:31:16;;;;;;;19.82;8.55;;;;;;;6.84;54.45;100746.67;1744392;81;98520;-63
2022/04/20 01:33:45;;;;;;;17.17;8.45;;;;;;;6.80;54.78;100738.80;1780692;79;27486;-62
2022/04/20 01:36:12;;;;;;;12.98;7.05;;;;;;;6.80;55.07;100735.68;1777159;79;25681;-63
2022/04/20 01:38:41;;;;;;;10.90;6.50;;;;;;;6.74;56.68;100738.50;1777546;80;98318;-63
2022/04/20 01:41:07;;;;;;;13.40;7.10;;;;;;;6.63;56.80;100740.57;1776455;79;26491;-63
2022/04/20 01:43:35;;;;;;;10.75;6.70;;;;;;;6.63;56.96;100741.90;1775471;80;98672;-64
2022/04/20 01:46:02;;;;;;;10.90;6.15;;;;;;;6.62;57.10;100740.61;1778622;79;27480;-64
2022/04/20 01:48:30;;;;;;;14.93;7.67;;;;;;;6.65;57.36;100740.53;1773913;80;98934;-64
2022/04/20 01:53:42;;;;;;;12.05;6.97;;;;;;;6.56;57.91;100728.78;1783484;79;26060;-62
2022/04/20 01:56:08;;;;;;;14.00;7.28;;;;;;;6.59;58.11;100734.03;1777024;80;98533;-63
2022/04/20 01:58:36;;;;;;;15.65;7.28;;;;;;;6.54;58.55;100724.83;1774885;79;26144;-64
2022/04/20 02:02:34;;;;;;;10.38;6.22;;;;;;;6.50;58.79;100714.70;1776201;79;99085;-63
2022/04/20 02:03:31;;;;;;;11.60;7.03;;;;;;;6.49;58.90;100716.08;1775343;80;25879;-63
2022/04/20 02:05:57;;;;;;;12.35;7.30;;;;;;;6.53;59.11;100713.75;1778741;80;26005;-63
2022/04/20 02:08:26;;;;;;;14.10;7.33;;;;;;;6.55;59.32;100701.28;1780427;80;98636;-63
2022/04/20 02:10:52;;;;;;;15.63;8.35;;;;;;;6.52;59.46;100700.02;1775805;80;27579;-63
2022/04/20 02:13:19;;;;;;;11.73;7.12;;;;;;;6.52;60.19;100696.03;1745878;81;98707;-63
2022/04/20 02:15:46;;;;;;;13.43;7.70;;;;;;;6.44;60.33;100698.89;1778081;80;26445;-63
2022/04/20 02:18:14;;;;;;;12.07;6.62;;;;;;;6.43;60.63;100701.13;1743501;81;25783;-63
2022/04/20 02:20:40;;;;;;;12.07;7.35;;;;;;;6.42;60.96;100698.05;1779841;79;98357;-63
2022/04/20 02:23:06;;;;;;;11.45;7.37;;;;;;;6.40;61.36;100689.23;1777528;80;27403;-63
2022/04/20 02:25:32;;;;;;;10.85;6.83;;;;;;;6.39;61.62;100686.16;1741710;81;98505;-63
2022/04/20 02:27:58;;;;;;;12.37;7.67;;;;;;;6.38;61.90;100689.73;1784761;78;31042;-63
2022/04/20 02:30:24;;;;;;;13.35;7.45;;;;;;;6.36;62.05;100688.89;1788307;79;98514;-64
2022/04/20 02:32:54;;;;;;;13.88;8.30;;;;;;;6.39;62.05;100678.16;1788352;78;25949;-63
2022/04/20 02:35:24;;;;;;;15.72;8.18;;;;;;;6.41;62.25;100678.13;1788105;79;27517;-63
2022/04/20 02:37:50;;;;;;;16.95;8.30;;;;;;;6.40;62.41;100678.58;1787889;78;98536;-63
2022/04/20 02:40:19;;;;;;;15.72;8.80;;;;;;;6.39;62.45;100671.51;1793177;79;25753;-63
2022/04/20 02:42:47;;;;;;;14.07;8.53;;;;;;;6.35;62.73;100658.31;1789049;78;98627;-62
2022/04/20 02:45:16;;;;;;;15.40;8.45;;;;;;;6.34;62.86;100661.44;1789791;78;25792;-63
2022/04/20 02:47:43;;;;;;;11.95;7.72;;;;;;;6.34;63.06;100652.58;1792266;78;27521;-63
2022/04/20 02:50:11;;;;;;;11.35;7.60;;;;;;;6.34;63.13;100648.58;1753625;80;98586;-62
2022/04/20 02:52:38;;;;;;;13.75;8.15;;;;;;;6.32;63.40;100656.61;1723922;82;36312;-63
2022/04/20 02:55:05;;;;;;;12.53;8.05;;;;;;;6.30;63.53;100659.77;1751982;80;98511;-62
2022/04/20 02:57:33;;;;;;;12.60;7.75;;;;;;;6.29;63.62;100659.80;1738038;81;25871;-62
2022/04/20 03:00:00;;;;;;;11.95;7.90;;;;;;;6.27;64.04;100662.96;1728271;82;28099;-62
2022/04/20 03:02:26;;;;;;;13.65;7.53;;;;;;;6.27;64.21;100665.17;1757226;80;98406;-62
2022/04/20 03:04:52;;;;;;;11.73;7.08;;;;;;;6.32;64.18;100658.39;1752249;81;25909;-63
2022/04/20 03:07:20;;;;;;;13.83;7.08;;;;;;;6.33;64.23;100659.69;1733863;81;97726;-62
2022/04/20 03:09:47;;;;;;;9.95;7.10;;;;;;;6.32;64.47;100655.28;1753405;81;26380;-62
2022/04/20 03:12:14;;;;;;;10.78;6.90;;;;;;;6.31;64.57;100657.98;1753852;80;27375;-62
2022/04/20 03:14:40;;;;;;;12.00;7.37;;;;;;;6.30;64.99;100672.20;1750179;80;98499;-62
2022/04/20 03:17:06;;;;;;;10.10;7.00;;;;;;;6.28;65.09;100672.70;1754271;80;25661;-62
2022/04/20 03:19:34;;;;;;;10.75;7.37;;;;;;;6.27;65.41;100673.61;1753195;80;98433;-62
2022/04/20 03:22:00;;;;;;;11.63;7.12;;;;;;;6.22;65.58;100680.38;1752199;80;25701;-62
2022/04/20 03:24:26;;;;;;;14.30;7.25;;;;;;;6.21;65.67;100675.09;1752312;81;98652;-64
2022/04/20 03:26:52;;;;;;;13.65;6.72;;;;;;;6.19;66.22;100676.47;1749492;81;25764;-62
2022/04/20 03:29:18;;;;;;;11.57;7.00;;;;;;;6.21;66.56;100679.09;1737802;81;25791;-62
2022/04/20 03:31:46;;;;;;;11.55;7.20;;;;;;;6.16;67.82;100681.41;1691885;83;98513;-62
2022/04/20 03:34:13;;;;;;;13.08;7.58;;;;;;;6.08;68.10;100679.84;1736257;81;25746;-63
2022/04/20 03:36:39;;;;;;;15.63;9.08;;;;;;;6.04;68.60;100676.84;1692344;82;98852;-62
2022/04/20 03:39:06;;;;;;;14.80;8.20;;;;;;;6.02;68.49;100679.53;1733277;81;25823;-62
2022/04/20 03:41:32;;;;;;;10.40;6.85;;;;;;;6.01;68.70;100676.45;1716161;81;25709;-63
2022/04/20 03:43:59;;;;;;;15.05;8.63;;;;;;;6.01;69.00;100672.92;1729290;81;98609;-62
2022/04/20 03:46:26;;;;;;;22.52;8.78;;;;;;;5.98;68.79;100664.56;1707392;82;25652;-63
2022/04/20 03:48:52;;;;;;;13.00;7.60;;;;;;;6.01;68.82;100669.80;1704439;82;98726;-62
2022/04/20 03:51:18;;;;;;;14.93;8.35;;;;;;;6.01;68.89;100655.62;1727311;81;25806;-62
2022/04/20 03:53:45;;;;;;;14.43;7.78;;;;;;;6.03;68.83;100660.45;1737680;82;25815;-62
2022/04/20 03:56:12;;;;;;;13.83;7.72;;;;;;;6.04;68.87;100664.41;1685490;83;98607;-62
2022/04/20 03:58:39;;;;;;;12.63;7.90;;;;;;;6.05;68.88;100666.61;1699791;82;25792;-62
2022/04/20 04:01:08;;;;;;;14.23;8.38;;;;;;;6.05;68.92;100665.28;1701142;82;98546;-62
2022/04/20 04:03:37;;;;;;;17.05;8.20;;;;;;;6.07;68.87;100664.79;1699646;82;25778;-63
2022/04/20 04:06:03;;;;;;;14.90;7.72;;;;;;;6.08;68.88;100671.41;1704585;82;25851;-64
2022/04/20 04:08:31;;;;;;;13.88;7.58;;;;;;;6.11;69.01;100669.12;1734169;81;98686;-62
2022/04/20 04:10:57;;;;;;;13.72;7.25;;;;;;;6.12;68.95;100673.53;1731669;81;25831;-62
2022/04/20 04:13:24;;;;;;;19.23;7.42;;;;;;;6.10;69.15;100663.39;1729409;82;98535;-62
2022/04/20 04:15:52;;;;;;;12.88;7.28;;;;;;;6.11;69.11;100662.02;1696633;81;25932;-62
2022/04/20 04:18:18;;;;;;;13.45;6.78;;;;;;;6.11;69.15;100664.67;1731407;81;98715;-63
2022/04/20 04:20:46;;;;;;;14.45;7.42;;;;;;;6.13;69.34;100666.84;1701634;82;26058;-62
2022/04/20 04:23:13;;;;;;;11.63;6.97;;;;;;;6.09;69.28;100663.84;1733174;81;26181;-62
2022/04/20 04:25:39;;;;;;;13.58;7.50;;;;;;;6.11;69.33;100666.46;1699028;82;98585;-62
2022/04/20 04:28:08;;;;;;;15.75;7.22;;;;;;;6.13;69.38;100665.97;1733858;80;25955;-62
2022/04/20 04:30:34;;;;;;;18.40;7.15;;;;;;;6.11;69.42;100672.66;1746407;81;98774;-62
2022/04/20 04:33:02;;;;;;;12.82;6.78;;;;;;;6.12;69.43;100666.42;1745982;81;26211;-63
2022/04/20 04:35:28;;;;;;;15.85;8.03;;;;;;;6.16;69.63;100662.78;1745395;81;25696;-62
2022/04/20 04:37:55;;;;;;;11.25;6.45;;;;;;;6.15;69.66;100659.70;1743776;81;98579;-62
2022/04/20 04:40:23;;;;;;;14.68;7.47;;;;;;;6.14;69.51;100653.95;1784090;79;26165;-63
2022/04/20 04:42:51;;;;;;;10.18;6.70;;;;;;;6.16;69.54;100653.46;1787415;78;97869;-63
2022/04/20 04:50:48;;;;;;;16.93;7.50;;;;;;;6.25;69.63;100660.80;1787515;79;98841;-63
2022/04/20 04:53:15;;;;;;;12.50;6.80;;;;;;;6.27;69.59;100657.64;1787321;80;25744;-64
2022/04/20 04:55:42;;;;;;;14.90;6.67;;;;;;;6.28;69.60;100663.38;1783197;79;98560;-64
2022/04/20 04:58:10;;;;;;;15.05;7.00;;;;;;;6.29;69.59;100655.36;1787892;78;26865;-62
2022/04/20 05:00:38;;;;;;;18.17;7.28;;;;;;;6.32;69.55;100659.73;1776673;78;98668;-62
2022/04/20 05:03:04;;;;;;;10.05;5.42;;;;;;;6.33;69.65;100654.36;1778001;78;27989;-64
2022/04/20 05:05:31;;;;;;;14.68;7.30;;;;;;;6.35;69.70;100651.20;1782254;78;26447;-64
2022/04/20 05:07:57;;;;;;;14.45;6.33;;;;;;;6.35;69.72;100650.33;1787075;78;98523;-63
2022/04/20 05:10:24;;;;;;;11.75;6.47;;;;;;;6.36;69.65;100652.08;1788691;80;26783;-62
2022/04/20 05:12:51;;;;;;;12.20;6.47;;;;;;;6.35;69.62;100649.00;1784559;79;98608;-62
2022/04/20 05:15:18;;;;;;;12.88;6.17;;;;;;;6.35;69.67;100650.33;1783318;79;25671;-62
2022/04/20 05:17:44;;;;;;;15.15;6.67;;;;;;;6.34;69.67;100656.56;1787324;79;25690;-62
2022/04/20 05:20:10;;;;;;;12.30;6.05;;;;;;;6.31;69.71;100651.33;1776401;78;98501;-63
2022/04/20 05:22:39;;;;;;;8.83;5.20;;;;;;;6.28;69.72;100649.61;1785836;79;26086;-64
2022/04/20 05:25:08;;;;;;;10.95;5.67;;;;;;;6.27;69.76;100646.53;1779709;80;98413;-63
2022/04/20 05:27:34;;;;;;;9.58;5.90;;;;;;;6.25;69.75;100650.15;1779765;78;28265;-63
2022/04/20 05:29:59;;;;;;;12.95;5.58;;;;;;;6.25;69.84;100660.80;1792442;78;25686;-63
2022/04/20 05:32:27;;;;;;;9.33;5.25;;;;;;;6.24;69.87;100655.05;1790091;79;98537;-64
2022/04/20 05:34:54;;;;;;;15.50;6.20;;;;;;;6.22;69.96;100658.22;1789734;78;26073;-65
2022/04/20 05:42:50;;;;;;;10.32;6.20;;;;;;;6.19;70.07;100656.50;1748714;81;98622;-66
2022/04/20 05:45:16;;;;;;;10.68;5.42;;;;;;;6.17;70.15;100657.00;1720364;81;25860;-64
2022/04/20 05:47:44;;;;;;;11.38;5.87;;;;;;;6.16;70.42;100668.55;1725868;81;26090;-64
2022/04/20 05:50:10;;;;;;;10.43;5.25;;;;;;;6.10;70.35;100658.94;1758110;80;98541;-66
2022/04/20 05:52:37;;;;;;;11.60;5.30;;;;;;;6.10;70.39;100658.94;1755732;80;28000;-65
2022/04/20 05:55:07;;;;;;;18.17;6.67;;;;;;;6.09;70.47;100657.19;1748003;80;98700;-64
2022/04/20 05:57:35;;;;;;;12.30;5.72;;;;;;;6.02;71.14;100661.37;1726626;81;26490;-64
2022/04/20 06:00:01;;;;;;;15.03;7.35;;;;;;;5.97;71.02;100656.16;1715907;81;26455;-64
2022/04/20 06:02:29;;;;;;;11.93;5.90;;;;;;;5.96;71.07;100656.20;1760300;80;98582;-65
2022/04/20 06:04:59;;;;;;;14.15;6.47;;;;;;;5.95;71.22;100653.99;1757847;81;27542;-63
2022/04/20 06:07:29;;;;;;;16.17;5.92;;;;;;;5.95;71.52;100656.66;1719806;81;98553;-65
2022/04/20 06:09:56;;;;;;;9.93;5.95;;;;;;;5.92;71.79;100650.53;1737513;80;26802;-66
2022/04/20 06:12:21;;;;;;;20.40;8.05;;;;;;;5.86;71.64;100665.69;1757372;81;26402;-64
2022/04/20 06:14:51;;;;;;;15.48;6.97;;;;;;;5.85;71.85;100655.09;1744659;80;98410;-64
2022/04/20 06:17:18;;;;;;;11.95;5.75;;;;;;;5.86;71.86;100651.52;1753178;80;27400;-65
2022/04/20 06:19:46;;;;;;;14.80;6.92;;;;;;;5.84;71.91;100651.55;1753316;80;98477;-65
2022/04/20 06:22:14;;;;;;;12.47;6.33;;;;;;;5.86;71.99;100655.05;1753310;80;26243;-64
2022/04/20 06:24:40;;;;;;;15.60;6.72;;;;;;;5.88;71.88;100656.34;1753839;80;98770;-64
2022/04/20 06:27:07;;;;;;;12.30;6.50;;;;;;;5.89;71.92;100646.16;1754463;81;25879;-64
2022/04/20 06:29:37;;;;;;;14.35;7.50;;;;;;;5.87;72.32;100647.95;1748174;81;27474;-65
2022/04/20 06:32:05;;;;;;;11.50;6.58;;;;;;;5.85;72.46;100650.64;1736386;81;98549;-63
2022/04/20 06:34:33;;;;;;;12.95;6.75;;;;;;;5.87;72.62;100643.95;1741770;81;25782;-65
2022/04/20 06:37:00;;;;;;;12.55;6.40;;;;;;;5.90;72.65;100639.92;1740798;81;98728;-65
2022/04/20 06:39:28;;;;;;;10.72;6.05;;;;;;;5.94;72.68;100640.27;1742067;81;26085;-68
2022/04/20 06:41:55;;;;;;;9.90;6.10;;;;;;;5.93;72.88;100633.66;1740020;81;27594;-63
2022/04/20 06:44:24;;;;;;;11.70;6.53;;;;;;;5.92;73.18;100634.56;1741079;81;97712;-63
2022/04/20 06:46:50;;;;;;;11.60;6.47;;;;;;;5.90;73.41;100629.28;1740444;81;25870;-65
2022/04/20 06:49:16;;;;;;;16.05;6.55;;;;;;;5.95;73.50;100622.52;1752015;80;99095;-67
2022/04/20 07:00:00;;;;;;;14.40;6.30;;;;;;;5.86;74.37;100620.47;1754514;80;25956;-64
2022/04/20 07:02:26;;;;;;;17.65;6.92;;;;;;;5.83;74.51;100615.23;1751828;80;98408;-64
2022/04/20 07:04:52;;;;;;;13.83;6.70;;;;;;;5.88;74.80;100618.65;1756793;80;25804;-66
2022/04/20 07:07:18;;;;;;;38.13;17.20;;;;;;;5.87;74.75;100612.91;1751610;80;98628;-66
2022/04/20 07:09:44;;;;;;;12.53;5.97;;;;;;;5.88;75.02;100612.00;1754395;80;25706;-65
2022/04/20 07:12:12;;;;;;;9.68;6.58;;;;;;;5.85;75.48;100608.09;1757292;80;25777;-64
2022/04/20 07:14:42;;;;;;;11.50;6.58;;;;;;;5.81;75.57;100606.41;1754882;79;98249;-66
2022/04/20 07:17:09;;;;;;;12.07;6.90;;;;;;;5.83;75.88;100604.59;1753484;80;25881;-66
2022/04/20 07:19:35;;;;;;;12.10;6.55;;;;;;;5.84;76.03;100605.47;1754500;80;98453;-66
2022/04/20 07:22:03;;;;;;;10.68;6.80;;;;;;;5.90;76.21;100601.81;1757706;80;26937;-65
2022/04/20 07:24:31;;;;;;;10.48;5.75;;;;;;;5.93;76.24;100602.61;1751319;80;98737;-65
2022/04/20 07:26:59;;;;;;;10.20;5.42;;;;;;;5.96;76.27;100596.34;1750395;80;26073;-68
2022/04/20 07:29:25;;;;;;;10.20;5.35;;;;;;;5.95;76.52;100594.13;1759374;80;25787;-66
2022/04/20 07:31:51;;;;;;;13.28;5.65;;;;;;;5.92;76.56;100584.90;1769259;79;98414;-67
2022/04/20 07:34:21;;;;;;;10.63;4.90;;;;;;;5.99;76.71;100579.84;1770488;80;27267;-66
2022/04/20 07:36:49;;;;;;;9.70;5.50;;;;;;;6.07;76.75;100576.53;1765583;79;98679;-64
2022/04/20 07:39:16;;;;;;;11.70;5.60;;;;;;;6.10;76.74;100564.47;1771637;80;25788;-64
2022/04/20 07:41:42;;;;;;;8.03;5.10;;;;;;;6.09;76.69;100571.16;1771108;79;25784;-64
2022/04/20 07:44:09;;;;;;;10.45;5.70;;;;;;;6.08;76.76;100572.95;1769216;80;98345;-63
2022/04/20 07:46:35;;;;;;;10.05;5.78;;;;;;;6.08;76.85;100568.09;1771626;79;25675;-63
2022/04/20 07:50:18;;;;;;;17.75;8.05;;;;;;;6.12;76.98;100567.09;1749401;80;98769;-66
2022/04/20 07:51:31;;;;;;;13.18;5.20;;;;;;;6.14;76.93;100568.80;1770330;80;26546;-65
2022/04/20 07:53:59;;;;;;;11.55;5.65;;;;;;;6.14;76.94;100567.92;1769378;80;25792;-64
2022/04/20 07:56:24;;;;;;;8.45;5.62;;;;;;;6.11;77.04;100571.54;1766294;80;98597;-67
2022/04/20 07:58:50;;;;;;;9.18;6.17;;;;;;;6.09;77.05;100569.37;1768680;79;25815;-65
2022/04/20 08:01:17;;;;;;;12.47;5.60;;;;;;;6.11;77.37;100568.87;1762832;80;98390;-64
2022/04/20 08:03:43;;;;;;;13.98;6.92;;;;;;;6.17;77.47;100566.05;1771200;80;26863;-64
2022/04/20 08:06:09;;;;;;;8.90;5.50;;;;;;;6.14;77.49;100559.48;1769697;80;25833;-64
2022/04/20 08:08:35;;;;;;;12.10;6.35;;;;;;;6.19;77.60;100568.67;1770415;80;97506;-64
2022/04/20 08:11:02;;;;;;;12.50;6.65;;;;;;;6.23;77.69;100554.83;1768071;80;25900;-63
2022/04/20 08:16:14;;;;;;;14.40;6.30;;;;;;;6.33;77.82;100554.54;1770284;79;26183;-62
2022/04/20 08:18:40;;;;;;;11.95;6.33;;;;;;;6.36;77.90;100549.59;1769221;80;98711;-62
2022/04/20 08:21:06;;;;;;;8.33;5.35;;;;;;;6.36;77.91;100557.12;1769064;80;26730;-64
2022/04/20 08:23:34;;;;;;;10.73;5.63;;;;;;;6.37;77.94;100554.88;1769299;80;25769;-63
2022/04/20 08:26:01;;;;;;;14.83;6.20;;;;;;;6.39;78.10;100551.70;1770734;79;98607;-64
2022/04/20 08:28:30;;;;;;;14.90;6.20;;;;;;;6.37;78.05;100550.88;1772081;79;26436;-63
2022/04/20 08:31:00;;;;;;;15.20;6.05;;;;;;;6.41;78.18;100547.67;1784372;79;98754;-63
2022/04/20 08:33:29;;;;;;;10.18;7.05;;;;;;;6.38;78.07;100547.30;1790720;79;29492;-65
2022/04/20 08:35:55;;;;;;;7.87;5.10;;;;;;;6.29;78.13;100545.35;1790773;79;26721;-63
2022/04/20 08:38:22;;;;;;;13.53;7.12;;;;;;;6.26;78.25;100541.44;1792785;78;98463;-64
2022/04/20 08:40:51;;;;;;;12.03;5.83;;;;;;;6.23;78.45;100544.19;1793593;78;27419;-64
2022/04/20 08:43:16;;;;;;;9.45;6.12;;;;;;;6.19;78.51;100532.30;1791363;79;98644;-64
2022/04/20 08:45:44;;;;;;;9.78;6.22;;;;;;;6.22;78.63;100535.78;1792848;79;27533;-64
2022/04/20 08:48:10;;;;;;;10.85;5.45;;;;;;;6.22;78.77;100542.44;1792253;79;25761;-66
2022/04/20 08:50:42;;;;;;;10.95;6.00;;;;;;;6.21;78.94;100542.02;1794087;79;98490;-64
2022/04/20 08:53:10;;;;;;;12.40;6.85;;;;;;;6.13;79.15;100535.12;1754153;80;26060;-64
2022/04/20 08:55:36;;;;;;;10.20;6.45;;;;;;;6.13;79.30;100532.91;1725399;82;98579;-64
2022/04/20 08:58:05;;;;;;;15.35;7.25;;;;;;;6.09;79.48;100526.80;1758684;81;29544;-67
2022/04/20 09:00:35;;;;;;;13.53;7.30;;;;;;;6.06;79.59;100524.23;1750583;80;98670;-66
2022/04/20 09:03:03;;;;;;;18.07;8.23;;;;;;;6.03;79.74;100512.33;1734959;81;25829;-64
2022/04/20 09:05:33;;;;;;;11.53;7.80;;;;;;;6.03;79.95;100515.45;1750435;80;28202;-65
2022/04/20 09:08:12;;;;;;;18.17;8.60;;;;;;;6.01;80.00;100511.50;1750917;80;98532;-67
2022/04/20 09:10:39;;;;;;;16.45;8.53;;;;;;;6.03;80.16;100497.70;1735862;82;27463;-64
2022/04/20 09:13:12;;;;;;;11.93;8.05;;;;;;;6.05;80.31;100493.21;1733130;81;98785;-66
2022/04/20 09:15:41;;;;;;;14.63;9.48;;;;;;;6.02;80.41;100479.12;1734567;81;25860;-64
2022/04/20 09:18:10;;;;;;;13.95;7.92;;;;;;;6.03;80.86;100475.54;1735160;81;26088;-63
2022/04/20 09:20:41;;;;;;;15.28;9.88;;;;;;;5.98;80.89;100465.03;1735454;81;98573;-63
2022/04/20 09:23:12;;;;;;;19.70;11.18;;;;;;;5.96;81.12;100461.53;1754018;80;28062;-64
2022/04/20 09:25:41;;;;;;;20.80;11.33;;;;;;;5.96;81.28;100458.88;1723269;81;98779;-65
2022/04/20 09:28:09;;;;;;;18.37;11.57;;;;;;;6.02;81.45;100458.70;1753598;81;25793;-64
2022/04/20 09:30:42;;;;;;;23.70;13.78;;;;;;;6.07;81.49;100458.13;1729889;81;98882;-63
2022/04/20 09:33:13;;;;;;;19.23;12.70;;;;;;;6.10;81.63;100455.83;1778431;79;26395;-63
2022/04/20 09:35:49;;;;;;;21.17;12.75;;;;;;;6.13;81.91;100451.75;1755202;79;27475;-63
2022/04/20 09:38:21;;;;;;;18.75;11.70;;;;;;;6.12;82.13;100446.89;1777367;79;98716;-65
2022/04/20 09:40:50;;;;;;;15.50;10.75;;;;;;;6.12;82.56;100439.36;1776634;79;26790;-64
2022/04/20 09:43:19;;;;;;;20.52;11.68;;;;;;;6.11;83.00;100434.50;1775631;79;98618;-64
2022/04/20 09:49:07;;;;;;;20.30;10.32;;;;;;;6.14;83.43;100431.75;1724780;81;98905;-64
2022/04/20 09:51:40;;;;;;;19.40;11.63;;;;;;;6.16;83.90;100434.38;1775876;79;25756;-63
2022/04/20 09:54:27;;;;;;;13.68;9.55;;;;;;;6.15;83.94;100431.30;1779223;79;25886;-64
2022/04/20 09:57:12;;;;;;;18.30;10.35;;;;;;;6.17;84.49;100435.66;1775228;79;98381;-63
2022/04/20 09:59:57;;;;;;;20.10;10.95;;;;;;;6.18;84.50;100432.08;1770818;80;25790;-62
2022/04/20 10:02:26;;;;;;;17.55;10.82;;;;;;;6.18;84.67;100433.41;1775634;80;98622;-62
2022/04/20 10:04:55;;;;;;;23.12;12.90;;;;;;;6.19;84.84;100422.31;1778761;79;26177;-62
2022/04/20 10:07:22;;;;;;;21.37;11.38;;;;;;;6.25;84.90;100416.80;1773930;79;97882;-62
2022/04/20 10:09:49;;;;;;;17.73;9.25;;;;;;;6.26;85.27;100414.56;1775458;80;26005;-64
2022/04/20 10:12:17;;;;;;;17.23;9.53;;;;;;;6.27;85.49;100410.11;1754729;80;26193;-62
2022/04/20 10:17:44;;;;;;;16.57;8.70;;;;;;;6.26;85.75;100379.95;1752552;81;26018;-62
2022/04/20 10:20:14;;;;;;;17.95;8.18;;;;;;;6.28;86.13;100379.91;1763726;80;98594;-63
2022/04/20 10:22:42;;;;;;;12.43;7.55;;;;;;;6.26;86.22;100371.10;1775336;79;26580;-63
2022/04/20 10:25:10;;;;;;;11.50;7.45;;;;;;;6.25;86.48;100369.36;1780386;78;98695;-63
2022/04/20 10:28:03;;;;;;;14.00;8.38;;;;;;;6.22;86.75;100361.47;1776307;80;27565;-63
2022/04/20 10:30:50;;;;;;;19.15;8.13;;;;;;;6.22;87.08;100378.77;1777143;80;25814;-62
2022/04/20 10:33:19;;;;;;;17.05;8.48;;;;;;;6.23;86.92;100375.19;1766229;80;26235;-63
2022/04/20 10:35:58;;;;;;;12.58;6.50;;;;;;;6.28;87.10;100371.92;1770468;80;26322;-64
2022/04/20 10:38:29;;;;;;;13.90;7.50;;;;;;;6.30;87.16;100368.77;1767861;79;98544;-62
2022/04/20 10:41:05;;;;;;;12.85;8.65;;;;;;;6.33;87.59;100367.34;1770157;80;28085;-64
2022/04/20 10:43:34;;;;;;;15.95;8.13;;;;;;;6.35;87.69;100384.13;1768518;80;98797;-63
2022/04/20 10:46:22;;;;;;;15.18;7.87;;;;;;;6.32;87.74;100391.75;1765826;79;25668;-63
2022/04/20 10:48:58;;;;;;;19.37;9.23;;;;;;;6.29;87.71;100376.33;1767383;79;26013;-62
2022/04/20 10:51:42;;;;;;;12.55;7.72;;;;;;;6.33;87.69;100379.31;1766646;80;98335;-62
2022/04/20 10:54:27;;;;;;;16.73;8.15;;;;;;;6.35;87.78;100380.14;1767562;80;27762;-62
2022/04/20 10:57:08;;;;;;;11.85;7.05;;;;;;;6.33;87.71;100380.64;1766213;80;98564;-62
2022/04/20 10:59:34;;;;;;;12.47;7.45;;;;;;;6.34;88.01;100383.27;1769873;80;26460;-62
2022/04/20 11:02:06;;;;;;;12.18;8.48;;;;;;;6.35;87.89;100376.15;1761515;80;97600;-62
2022/04/20 11:04:52;;;;;;;11.75;7.78;;;;;;;6.38;87.86;100374.72;1766919;80;25275;-62
2022/04/20 11:07:20;;;;;;;13.45;8.03;;;;;;;6.44;87.98;100377.20;1766387;80;98506;-63
2022/04/20 11:10:05;;;;;;;11.78;8.23;;;;;;;6.47;87.98;100385.09;1765280;79;25892;-62
2022/04/20 11:18:41;;;;;;;14.23;8.43;;;;;;;6.49;88.10;100392.11;1767708;80;26169;-62
2022/04/20 11:21:13;;;;;;;13.85;8.25;;;;;;;6.53;88.42;100385.36;1768428;79;98454;-62
2022/04/20 11:24:07;;;;;;;13.30;7.80;;;;;;;6.52;88.39;100400.47;1768821;79;25852;-62
2022/04/20 11:26:51;;;;;;;11.65;7.12;;;;;;;6.56;88.51;100387.47;1763857;79;97633;-62
2022/04/20 11:29:25;;;;;;;14.63;7.70;;;;;;;6.59;88.81;100364.74;1768841;79;26072;-62
2022/04/20 11:32:12;;;;;;;13.45;8.80;;;;;;;6.59;88.68;100366.53;1781354;78;98641;-64
2022/04/20 11:34:42;;;;;;;22.45;7.50;;;;;;;6.60;88.60;100378.47;1792408;79;27401;-62
2022/04/20 11:37:07;;;;;;;14.20;8.05;;;;;;;6.59;88.53;100371.86;1790985;79;27207;-62
2022/04/20 11:39:34;;;;;;;14.47;7.97;;;;;;;6.59;88.55;100362.08;1790293;78;98770;-62
2022/04/20 11:42:07;;;;;;;14.73;7.58;;;;;;;6.56;88.49;100356.84;1784879;79;26638;-62
2022/04/20 11:44:42;;;;;;;18.77;8.98;;;;;;;6.57;88.64;100360.38;1790021;79;98522;-62
2022/04/20 11:47:12;;;;;;;17.48;8.73;;;;;;;6.57;88.74;100367.04;1786693;79;28134;-60
2022/04/20 11:49:46;;;;;;;15.48;9.28;;;;;;;6.55;88.71;100367.55;1790005;79;98766;-60
2022/04/20 11:52:18;;;;;;;12.63;8.35;;;;;;;6.57;88.83;100385.22;1790144;79;25757;-60
2022/04/20 11:54:49;;;;;;;22.20;12.10;;;;;;;6.57;88.75;100388.34;1790607;78;26394;-61
2022/04/20 11:57:16;;;;;;;17.35;8.40;;;;;;;6.58;88.67;100388.30;1788018;79;98710;-60
2022/04/20 11:59:50;;;;;;;18.57;10.48;;;;;;;6.58;88.53;100380.77;1792918;78;26467;-60
2022/04/20 12:02:19;;;;;;;;;;;;;;;6.56;88.51;100375.95;1796134;78;98680;-61
2022/04/20 12:04:46;;;;;;;19.05;12.13;;;;;;;6.58;88.58;100371.45;1792378;79;25788;-61
2022/04/20 12:07:13;;;;;;;20.25;11.95;;;;;;;6.58;88.54;100368.78;1792263;78;99216;-64